createdAt,value
2018-07-27T00:00:56.359Z,0.00
2018-07-27T00:01:56.359Z,0.00
2018-07-27T00:02:56.358Z,0.00
2018-07-27T00:03:56.358Z,0.00
2018-07-27T00:04:56.356Z,0.00
2018-07-27T00:05:56.355Z,0.00
2018-07-27T00:06:56.355Z,0.00
2018-07-27T00:07:56.353Z,0.00
2018-07-27T00:08:56.352Z,0.00
2018-07-27T00:09:56.352Z,0.00
2018-07-27T00:10:56.351Z,0.00
2018-07-27T00:11:56.349Z,0.00
2018-07-27T00:12:56.349Z,0.00
2018-07-27T00:13:56.348Z,0.00
2018-07-27T00:14:56.348Z,0.00
2018-07-27T00:15:56.346Z,0.00
2018-07-27T00:16:56.346Z,0.00
2018-07-27T00:17:56.344Z,0.00
2018-07-27T00:18:56.346Z,0.00
2018-07-27T00:19:56.343Z,0.00
2018-07-27T00:20:56.343Z,0.00
2018-07-27T00:21:56.342Z,0.00
2018-07-27T00:22:56.341Z,0.00
2018-07-27T00:23:56.340Z,0.00
2018-07-27T00:24:56.339Z,0.00
2018-07-27T00:25:56.352Z,0.00
2018-07-27T00:26:56.339Z,0.00
2018-07-27T00:27:56.337Z,0.00
2018-07-27T00:28:56.338Z,0.00
2018-07-27T00:29:56.336Z,0.00
2018-07-27T00:30:56.336Z,0.00
2018-07-27T00:31:56.334Z,0.00
2018-07-27T00:32:56.334Z,0.00
2018-07-27T00:33:56.333Z,0.00
2018-07-27T00:34:56.333Z,0.00
2018-07-27T00:35:56.331Z,0.00
2018-07-27T00:36:56.331Z,0.00
2018-07-27T00:37:56.330Z,0.00
2018-07-27T00:38:56.330Z,0.00
2018-07-27T00:39:56.328Z,0.00
2018-07-27T00:40:56.328Z,0.00
2018-07-27T00:41:56.327Z,0.00
2018-07-27T00:42:56.328Z,0.00
2018-07-27T00:43:56.325Z,0.00
2018-07-27T00:44:56.327Z,0.00
2018-07-27T00:45:56.324Z,0.00
2018-07-27T00:46:56.324Z,0.00
2018-07-27T00:47:56.324Z,0.00
2018-07-27T00:48:56.323Z,0.00
2018-07-27T00:49:56.321Z,0.00
2018-07-27T00:50:56.320Z,0.00
2018-07-27T00:51:56.318Z,0.00
2018-07-27T00:52:56.318Z,0.00
2018-07-27T00:53:56.318Z,0.00
2018-07-27T00:54:56.317Z,0.00
2018-07-27T00:55:56.318Z,0.00
2018-07-27T00:56:56.315Z,0.00
2018-07-27T00:57:56.314Z,0.00
2018-07-27T00:58:56.313Z,0.00
2018-07-27T00:59:56.312Z,0.00
2018-07-27T01:00:56.312Z,0.00
2018-07-27T01:01:56.311Z,0.00
2018-07-27T01:02:56.310Z,0.00
2018-07-27T01:03:56.308Z,0.00
2018-07-27T01:04:56.308Z,0.00
2018-07-27T01:05:56.308Z,0.00
2018-07-27T01:06:56.307Z,0.00
2018-07-27T01:07:56.305Z,0.00
2018-07-27T01:08:56.304Z,0.00
2018-07-27T01:09:56.304Z,0.00
2018-07-27T01:10:56.303Z,0.00
2018-07-27T01:11:56.304Z,0.00
2018-07-27T01:12:56.301Z,0.00
2018-07-27T01:13:56.300Z,0.00
2018-07-27T01:14:56.299Z,0.00
2018-07-27T01:15:56.298Z,0.00
2018-07-27T01:16:56.297Z,0.00
2018-07-27T01:17:56.299Z,0.00
2018-07-27T01:18:56.296Z,0.00
2018-07-27T01:19:56.294Z,0.00
2018-07-27T01:20:56.294Z,0.00
2018-07-27T01:21:56.293Z,0.00
2018-07-27T01:22:56.295Z,0.00
2018-07-27T01:23:56.290Z,0.00
2018-07-27T01:24:56.289Z,0.00
2018-07-27T01:25:56.289Z,0.00
2018-07-27T01:26:56.289Z,0.00
2018-07-27T01:27:56.287Z,0.00
2018-07-27T01:28:56.285Z,0.00
2018-07-27T01:29:56.289Z,0.00
2018-07-27T01:30:56.284Z,0.00
2018-07-27T01:31:56.282Z,0.00
2018-07-27T01:32:56.281Z,0.00
2018-07-27T01:33:56.281Z,0.00
2018-07-27T01:34:56.280Z,0.00
2018-07-27T01:35:56.277Z,0.00
2018-07-27T01:36:56.277Z,0.00
2018-07-27T01:37:56.279Z,0.00
2018-07-27T01:38:56.276Z,0.00
2018-07-27T01:39:56.273Z,0.00
2018-07-27T01:40:56.273Z,0.00
2018-07-27T01:41:56.275Z,0.00
2018-07-27T01:42:56.271Z,0.00
2018-07-27T01:43:56.274Z,0.00
2018-07-27T01:44:56.269Z,0.00
2018-07-27T01:45:56.268Z,0.00
2018-07-27T01:46:56.268Z,0.00
2018-07-27T01:47:56.266Z,0.00
2018-07-27T01:48:56.266Z,0.00
2018-07-27T01:49:56.269Z,0.00
2018-07-27T01:50:56.290Z,0.00
2018-07-27T01:51:56.262Z,0.00
2018-07-27T01:52:56.262Z,0.00
2018-07-27T01:53:56.261Z,0.00
2018-07-27T01:54:56.260Z,0.00
2018-07-27T01:55:56.258Z,0.00
2018-07-27T01:56:56.258Z,0.00
2018-07-27T01:57:56.262Z,0.00
2018-07-27T01:58:56.257Z,0.00
2018-07-27T01:59:56.255Z,0.00
2018-07-27T02:00:56.254Z,0.00
2018-07-27T02:01:56.254Z,0.00
2018-07-27T02:02:56.253Z,0.00
2018-07-27T02:03:56.251Z,0.00
2018-07-27T02:04:56.250Z,0.00
2018-07-27T02:05:56.269Z,0.00
2018-07-27T02:06:56.249Z,0.00
2018-07-27T02:07:56.247Z,0.00
2018-07-27T02:08:56.246Z,0.00
2018-07-27T02:09:56.248Z,0.00
2018-07-27T02:10:56.245Z,0.00
2018-07-27T02:11:56.243Z,0.00
2018-07-27T02:12:56.278Z,0.00
2018-07-27T02:13:56.241Z,0.00
2018-07-27T02:14:56.244Z,0.00
2018-07-27T02:15:56.240Z,0.00
2018-07-27T02:16:56.242Z,0.00
2018-07-27T02:17:56.239Z,0.00
2018-07-27T02:18:56.236Z,0.00
2018-07-27T02:19:56.235Z,0.00
2018-07-27T02:20:56.234Z,0.00
2018-07-27T02:21:56.233Z,0.00
2018-07-27T02:22:56.236Z,0.00
2018-07-27T02:23:56.235Z,0.00
2018-07-27T02:24:56.229Z,0.00
2018-07-27T02:25:56.229Z,0.00
2018-07-27T02:26:56.228Z,0.00
2018-07-27T02:27:56.232Z,0.00
2018-07-27T02:28:56.225Z,0.00
2018-07-27T02:29:56.225Z,0.00
2018-07-27T02:30:56.225Z,0.00
2018-07-27T02:31:56.222Z,0.00
2018-07-27T02:32:56.221Z,0.00
2018-07-27T02:33:56.366Z,0.00
2018-07-27T02:34:56.220Z,0.00
2018-07-27T02:35:56.218Z,0.00
2018-07-27T02:36:56.217Z,0.00
2018-07-27T02:37:56.216Z,0.00
2018-07-27T02:38:56.218Z,0.00
2018-07-27T02:39:56.263Z,0.00
2018-07-27T02:40:56.213Z,0.00
2018-07-27T02:41:56.215Z,0.00
2018-07-27T02:42:56.212Z,0.00
2018-07-27T02:43:56.209Z,0.00
2018-07-27T02:44:56.208Z,0.00
2018-07-27T02:45:56.207Z,0.00
2018-07-27T02:46:56.207Z,0.00
2018-07-27T02:47:56.218Z,0.00
2018-07-27T02:48:56.204Z,0.00
2018-07-27T02:49:56.203Z,0.00
2018-07-27T02:50:56.203Z,0.00
2018-07-27T02:51:56.209Z,0.00
2018-07-27T02:52:56.200Z,0.00
2018-07-27T02:53:56.199Z,0.00
2018-07-27T02:54:56.198Z,0.00
2018-07-27T02:55:56.196Z,0.00
2018-07-27T02:56:56.197Z,0.00
2018-07-27T02:57:56.195Z,0.00
2018-07-27T02:58:56.194Z,0.00
2018-07-27T02:59:56.192Z,0.00
2018-07-27T03:00:56.191Z,0.00
2018-07-27T03:01:56.192Z,0.00
2018-07-27T03:02:56.189Z,0.00
2018-07-27T03:03:56.188Z,0.00
2018-07-27T03:04:56.187Z,0.00
2018-07-27T03:05:56.186Z,0.00
2018-07-27T03:06:56.184Z,0.00
2018-07-27T03:07:56.183Z,0.00
2018-07-27T03:08:56.182Z,0.00
2018-07-27T03:09:56.182Z,0.00
2018-07-27T03:10:56.180Z,0.00
2018-07-27T03:11:56.178Z,0.00
2018-07-27T03:12:56.178Z,0.00
2018-07-27T03:13:56.176Z,0.00
2018-07-27T03:14:56.179Z,0.00
2018-07-27T03:15:56.174Z,0.00
2018-07-27T03:16:56.174Z,0.00
2018-07-27T03:17:56.172Z,0.00
2018-07-27T03:18:56.170Z,0.00
2018-07-27T03:19:56.169Z,0.00
2018-07-27T03:20:56.168Z,0.00
2018-07-27T03:21:56.167Z,0.00
2018-07-27T03:22:56.166Z,0.00
2018-07-27T03:23:56.163Z,0.00
2018-07-27T03:24:56.163Z,0.00
2018-07-27T03:25:56.163Z,0.00
2018-07-27T03:26:56.161Z,0.00
2018-07-27T03:27:56.159Z,0.00
2018-07-27T03:28:56.158Z,0.00
2018-07-27T03:29:56.165Z,0.00
2018-07-27T03:30:56.161Z,0.00
2018-07-27T03:31:56.157Z,0.00
2018-07-27T03:32:56.154Z,0.00
2018-07-27T03:33:56.153Z,0.00
2018-07-27T03:34:56.152Z,0.00
2018-07-27T03:35:56.150Z,0.00
2018-07-27T03:36:56.149Z,0.00
2018-07-27T03:37:56.148Z,0.00
2018-07-27T03:38:56.148Z,0.00
2018-07-27T03:39:56.145Z,0.00
2018-07-27T03:40:56.146Z,0.00
2018-07-27T03:41:56.144Z,0.00
2018-07-27T03:42:56.143Z,0.00
2018-07-27T03:43:56.141Z,0.00
2018-07-27T03:44:56.140Z,0.00
2018-07-27T03:45:56.139Z,5.63
2018-07-27T03:46:56.140Z,5.63
2018-07-27T03:47:56.135Z,5.63
2018-07-27T03:48:56.137Z,5.63
2018-07-27T03:49:56.136Z,5.63
2018-07-27T03:50:56.133Z,5.63
2018-07-27T03:51:56.131Z,5.63
2018-07-27T03:52:56.130Z,5.63
2018-07-27T03:53:56.129Z,11.25
2018-07-27T03:54:56.128Z,11.25
2018-07-27T03:55:56.126Z,11.25
2018-07-27T03:56:56.125Z,11.25
2018-07-27T03:57:56.124Z,11.25
2018-07-27T03:58:56.129Z,11.25
2018-07-27T03:59:56.121Z,16.88
2018-07-27T04:00:56.120Z,16.88
2018-07-27T04:01:56.119Z,16.88
2018-07-27T04:02:56.118Z,16.88
2018-07-27T04:03:56.116Z,22.50
2018-07-27T04:04:56.115Z,22.50
2018-07-27T04:05:56.114Z,22.50
2018-07-27T04:06:56.112Z,22.50
2018-07-27T04:07:56.111Z,28.13
2018-07-27T04:08:56.110Z,28.13
2018-07-27T04:09:56.111Z,28.13
2018-07-27T04:10:56.107Z,28.13
2018-07-27T04:11:56.109Z,33.75
2018-07-27T04:12:56.104Z,33.75
2018-07-27T04:13:56.103Z,33.75
2018-07-27T04:14:56.128Z,39.38
2018-07-27T04:15:56.100Z,39.38
2018-07-27T04:16:56.099Z,39.38
2018-07-27T04:17:56.099Z,39.38
2018-07-27T04:18:56.097Z,45.00
2018-07-27T04:19:56.095Z,45.00
2018-07-27T04:20:56.147Z,45.00
2018-07-27T04:21:56.093Z,50.63
2018-07-27T04:22:56.092Z,50.63
2018-07-27T04:23:56.091Z,50.63
2018-07-27T04:24:56.090Z,56.25
2018-07-27T04:25:56.089Z,56.25
2018-07-27T04:26:56.088Z,56.25
2018-07-27T04:27:56.086Z,61.88
2018-07-27T04:28:56.085Z,61.88
2018-07-27T04:29:56.083Z,61.88
2018-07-27T04:30:56.083Z,67.50
2018-07-27T04:31:56.080Z,67.50
2018-07-27T04:32:56.090Z,67.50
2018-07-27T04:33:56.079Z,73.13
2018-07-27T04:34:56.077Z,73.13
2018-07-27T04:35:56.076Z,78.75
2018-07-27T04:36:56.075Z,78.75
2018-07-27T04:37:56.073Z,78.75
2018-07-27T04:38:56.072Z,84.38
2018-07-27T04:39:56.070Z,84.38
2018-07-27T04:40:56.069Z,84.38
2018-07-27T04:41:56.068Z,90.00
2018-07-27T04:42:56.109Z,90.00
2018-07-27T04:43:56.065Z,90.00
2018-07-27T04:44:56.064Z,95.63
2018-07-27T04:45:56.063Z,95.63
2018-07-27T04:46:56.061Z,95.63
2018-07-27T04:47:56.060Z,101.25
2018-07-27T04:48:56.058Z,101.25
2018-07-27T04:49:56.059Z,101.25
2018-07-27T04:50:56.056Z,106.88
2018-07-27T04:51:56.054Z,106.88
2018-07-27T04:52:56.053Z,106.88
2018-07-27T04:53:56.052Z,112.50
2018-07-27T04:54:56.051Z,112.50
2018-07-27T04:55:56.048Z,112.50
2018-07-27T04:56:56.048Z,112.50
2018-07-27T04:57:56.047Z,118.13
2018-07-27T04:58:56.045Z,118.13
2018-07-27T04:59:56.044Z,118.13
2018-07-27T05:00:56.042Z,123.75
2018-07-27T05:01:56.041Z,123.75
2018-07-27T05:02:56.039Z,123.75
2018-07-27T05:03:56.041Z,129.38
2018-07-27T05:04:56.037Z,129.38
2018-07-27T05:05:56.039Z,129.38
2018-07-27T05:06:56.034Z,135.00
2018-07-27T05:07:56.032Z,135.00
2018-07-27T05:08:56.032Z,135.00
2018-07-27T05:09:56.030Z,140.63
2018-07-27T05:10:56.029Z,140.63
2018-07-27T05:11:56.061Z,140.63
2018-07-27T05:12:56.026Z,146.25
2018-07-27T05:13:56.024Z,146.25
2018-07-27T05:14:56.023Z,146.25
2018-07-27T05:15:56.021Z,151.88
2018-07-27T05:16:56.020Z,151.88
2018-07-27T05:17:56.019Z,151.88
2018-07-27T05:18:56.017Z,157.50
2018-07-27T05:19:56.016Z,157.50
2018-07-27T05:20:56.014Z,163.13
2018-07-27T05:21:56.013Z,163.13
2018-07-27T05:22:56.013Z,163.13
2018-07-27T05:23:56.010Z,168.75
2018-07-27T05:24:56.009Z,168.75
2018-07-27T05:25:56.009Z,174.38
2018-07-27T05:26:56.008Z,174.38
2018-07-27T05:27:56.009Z,174.38
2018-07-27T05:28:56.004Z,174.38
2018-07-27T05:29:56.004Z,174.38
2018-07-27T05:30:56.003Z,180.00
2018-07-27T05:31:56.001Z,180.00
2018-07-27T05:32:56.000Z,185.63
2018-07-27T05:33:55.999Z,185.63
2018-07-27T05:34:55.998Z,191.25
2018-07-27T05:35:55.996Z,191.25
2018-07-27T05:36:55.996Z,196.88
2018-07-27T05:37:55.994Z,196.88
2018-07-27T05:38:55.994Z,196.88
2018-07-27T05:39:55.993Z,202.50
2018-07-27T05:40:55.992Z,202.50
2018-07-27T05:41:55.991Z,202.50
2018-07-27T05:42:55.991Z,208.13
2018-07-27T05:43:55.989Z,208.13
2018-07-27T05:44:55.990Z,208.13
2018-07-27T05:45:55.988Z,213.75
2018-07-27T05:46:56.105Z,213.75
2018-07-27T05:47:55.986Z,219.38
2018-07-27T05:48:55.986Z,219.38
2018-07-27T05:49:55.986Z,219.38
2018-07-27T05:50:55.985Z,225.00
2018-07-27T05:51:55.984Z,225.00
2018-07-27T05:52:55.985Z,225.00
2018-07-27T05:53:55.984Z,225.00
2018-07-27T05:54:55.984Z,230.63
2018-07-27T05:55:55.983Z,230.63
2018-07-27T05:56:55.983Z,236.25
2018-07-27T05:57:55.983Z,236.25
2018-07-27T05:58:55.983Z,236.25
2018-07-27T05:59:55.982Z,241.88
2018-07-27T06:00:55.982Z,241.88
2018-07-27T06:01:55.983Z,241.88
2018-07-27T06:02:56.058Z,247.50
2018-07-27T06:03:55.982Z,247.50
2018-07-27T06:04:56.054Z,247.50
2018-07-27T06:05:55.982Z,253.13
2018-07-27T06:06:55.985Z,253.13
2018-07-27T06:07:55.982Z,258.75
2018-07-27T06:08:55.997Z,258.75
2018-07-27T06:09:55.986Z,258.75
2018-07-27T06:10:55.985Z,264.38
2018-07-27T06:11:55.984Z,264.38
2018-07-27T06:12:55.984Z,264.38
2018-07-27T06:13:55.985Z,270.00
2018-07-27T06:14:55.986Z,270.00
2018-07-27T06:15:55.990Z,270.00
2018-07-27T06:16:55.986Z,270.00
2018-07-27T06:17:56.012Z,275.63
2018-07-27T06:18:55.988Z,281.25
2018-07-27T06:19:55.988Z,281.25
2018-07-27T06:20:56.048Z,286.88
2018-07-27T06:21:55.991Z,286.88
2018-07-27T06:22:55.994Z,286.88
2018-07-27T06:23:56.070Z,292.50
2018-07-27T06:24:55.993Z,292.50
2018-07-27T06:25:55.995Z,298.13
2018-07-27T06:26:55.996Z,298.13
2018-07-27T06:27:55.999Z,303.75
2018-07-27T06:28:55.997Z,298.13
2018-07-27T06:29:56.035Z,303.75
2018-07-27T06:30:56.005Z,309.38
2018-07-27T06:31:56.001Z,309.38
2018-07-27T06:32:56.002Z,315.00
2018-07-27T06:33:56.003Z,315.00
2018-07-27T06:34:56.005Z,315.00
2018-07-27T06:35:56.006Z,320.63
2018-07-27T06:36:56.007Z,320.63
2018-07-27T06:37:56.009Z,320.63
2018-07-27T06:38:56.011Z,326.25
2018-07-27T06:39:56.013Z,337.50
2018-07-27T06:40:56.013Z,337.50
2018-07-27T06:41:56.016Z,337.50
2018-07-27T06:42:56.018Z,343.13
2018-07-27T06:43:56.018Z,343.13
2018-07-27T06:44:56.021Z,343.13
2018-07-27T06:45:56.023Z,343.13
2018-07-27T06:46:56.025Z,343.13
2018-07-27T06:47:56.026Z,343.13
2018-07-27T06:48:56.029Z,343.13
2018-07-27T06:49:56.030Z,348.75
2018-07-27T06:50:56.034Z,360.00
2018-07-27T06:51:56.034Z,354.38
2018-07-27T06:52:56.036Z,354.38
2018-07-27T06:53:56.038Z,360.00
2018-07-27T06:54:56.041Z,360.00
2018-07-27T06:55:56.042Z,365.63
2018-07-27T06:56:56.046Z,365.63
2018-07-27T06:57:56.046Z,371.25
2018-07-27T06:58:56.049Z,371.25
2018-07-27T06:59:56.050Z,371.25
2018-07-27T07:00:56.053Z,371.25
2018-07-27T07:01:56.055Z,365.63
2018-07-27T07:02:56.058Z,376.88
2018-07-27T07:03:56.063Z,376.88
2018-07-27T07:04:56.062Z,382.50
2018-07-27T07:05:56.067Z,382.50
2018-07-27T07:06:56.068Z,388.13
2018-07-27T07:07:56.069Z,393.75
2018-07-27T07:08:56.072Z,399.38
2018-07-27T07:09:56.075Z,405.00
2018-07-27T07:10:56.078Z,416.25
2018-07-27T07:11:56.080Z,410.63
2018-07-27T07:12:56.082Z,410.63
2018-07-27T07:13:56.085Z,416.25
2018-07-27T07:14:56.095Z,416.25
2018-07-27T07:15:56.091Z,483.75
2018-07-27T07:16:56.094Z,832.50
2018-07-27T07:17:56.099Z,1395.00
2018-07-27T07:18:56.102Z,1704.38
2018-07-27T07:19:56.105Z,1355.63
2018-07-27T07:20:56.109Z,1648.13
2018-07-27T07:21:56.115Z,1800.00
2018-07-27T07:22:56.126Z,1822.50
2018-07-27T07:23:56.126Z,1867.50
2018-07-27T07:24:56.134Z,1901.25
2018-07-27T07:25:56.502Z,1867.50
2018-07-27T07:26:56.147Z,1777.50
2018-07-27T07:27:56.155Z,1726.88
2018-07-27T07:28:56.162Z,1811.25
2018-07-27T07:29:56.175Z,1912.50
2018-07-27T07:30:56.180Z,1968.75
2018-07-27T07:31:56.188Z,1980.00
2018-07-27T07:32:56.198Z,2036.25
2018-07-27T07:33:56.208Z,2047.50
2018-07-27T07:34:56.218Z,2103.75
2018-07-27T07:35:56.227Z,2154.38
2018-07-27T07:36:56.238Z,2193.75
2018-07-27T07:37:56.249Z,2210.63
2018-07-27T07:38:56.260Z,2165.63
2018-07-27T07:39:56.271Z,2154.38
2018-07-27T07:40:56.282Z,2261.25
2018-07-27T07:41:56.294Z,2340.00
2018-07-27T07:42:56.306Z,2407.50
2018-07-27T07:43:56.318Z,2480.63
2018-07-27T07:44:56.385Z,2536.88
2018-07-27T07:45:56.342Z,2581.88
2018-07-27T07:46:56.355Z,2638.13
2018-07-27T07:47:56.367Z,2565.00
2018-07-27T07:48:56.380Z,2520.00
2018-07-27T07:49:56.393Z,2452.50
2018-07-27T07:50:56.407Z,2452.50
2018-07-27T07:51:56.419Z,2604.38
2018-07-27T07:52:56.432Z,2525.63
2018-07-27T07:53:56.446Z,2610.00
2018-07-27T07:54:56.460Z,2565.00
2018-07-27T07:55:56.472Z,2469.38
2018-07-27T07:56:56.485Z,2615.63
2018-07-27T07:57:56.500Z,2761.88
2018-07-27T07:58:56.513Z,2688.75
2018-07-27T07:59:56.525Z,2739.38
2018-07-27T08:00:56.540Z,2621.25
2018-07-27T08:01:56.555Z,2626.88
2018-07-27T08:02:56.569Z,2835.00
2018-07-27T08:03:56.581Z,2851.88
2018-07-27T08:04:56.595Z,2688.75
2018-07-27T08:05:56.614Z,2716.88
2018-07-27T08:06:56.628Z,2638.13
2018-07-27T08:07:56.661Z,2829.38
2018-07-27T08:08:56.653Z,2902.50
2018-07-27T08:09:56.769Z,2919.38
2018-07-27T08:10:56.684Z,2981.25
2018-07-27T08:11:56.697Z,2790.00
2018-07-27T08:12:56.712Z,2790.00
2018-07-27T08:13:56.730Z,2795.63
2018-07-27T08:14:56.743Z,2705.63
2018-07-27T08:15:56.757Z,2801.25
2018-07-27T08:16:56.773Z,2761.88
2018-07-27T08:17:56.788Z,2671.88
2018-07-27T08:18:56.804Z,2851.88
2018-07-27T08:19:56.818Z,2745.00
2018-07-27T08:20:56.834Z,2728.13
2018-07-27T08:21:56.850Z,2818.13
2018-07-27T08:22:56.865Z,2919.38
2018-07-27T08:23:56.880Z,2981.25
2018-07-27T08:24:56.898Z,3105.00
2018-07-27T08:25:56.973Z,3189.38
2018-07-27T08:26:56.927Z,3240.00
2018-07-27T08:27:56.942Z,3121.88
2018-07-27T08:28:56.958Z,2919.38
2018-07-27T08:29:56.974Z,3116.25
2018-07-27T08:30:56.990Z,3217.50
2018-07-27T08:31:57.006Z,3099.38
2018-07-27T08:32:57.023Z,3172.50
2018-07-27T08:33:57.039Z,3138.75
2018-07-27T08:34:57.059Z,3155.63
2018-07-27T08:35:57.074Z,3251.25
2018-07-27T08:36:57.091Z,3206.25
2018-07-27T08:37:57.109Z,3206.25
2018-07-27T08:38:57.166Z,3285.00
2018-07-27T08:39:57.143Z,3307.50
2018-07-27T08:40:57.161Z,3144.38
2018-07-27T08:41:57.179Z,2930.63
2018-07-27T08:42:57.197Z,3020.63
2018-07-27T08:43:57.214Z,3031.88
2018-07-27T08:44:57.232Z,3279.38
2018-07-27T08:45:57.251Z,3453.75
2018-07-27T08:46:57.270Z,3431.25
2018-07-27T08:47:57.286Z,3262.50
2018-07-27T08:48:57.305Z,3043.13
2018-07-27T08:49:57.323Z,2998.13
2018-07-27T08:50:57.343Z,2902.50
2018-07-27T08:51:57.359Z,2885.63
2018-07-27T08:52:57.378Z,2863.13
2018-07-27T08:53:57.396Z,2812.50
2018-07-27T08:54:57.414Z,2874.38
2018-07-27T08:55:57.433Z,2908.13
2018-07-27T08:56:57.451Z,2936.25
2018-07-27T08:57:57.470Z,2795.63
2018-07-27T08:58:57.489Z,3330.00
2018-07-27T08:59:57.506Z,3318.75
2018-07-27T09:00:57.525Z,3183.75
2018-07-27T09:01:57.546Z,3144.38
2018-07-27T09:02:57.563Z,2986.88
2018-07-27T09:03:57.633Z,2880.00
2018-07-27T09:04:57.599Z,3133.13
2018-07-27T09:05:57.618Z,2992.50
2018-07-27T09:06:57.637Z,2941.88
2018-07-27T09:07:57.655Z,2908.13
2018-07-27T09:08:57.675Z,3037.50
2018-07-27T09:09:57.693Z,3110.63
2018-07-27T09:10:57.712Z,3313.13
2018-07-27T09:11:57.732Z,3161.25
2018-07-27T09:12:57.748Z,3071.25
2018-07-27T09:13:57.767Z,3301.88
2018-07-27T09:14:57.788Z,3240.00
2018-07-27T09:15:57.803Z,3206.25
2018-07-27T09:16:57.822Z,3256.88
2018-07-27T09:17:57.841Z,3206.25
2018-07-27T09:18:57.860Z,3121.88
2018-07-27T09:19:57.877Z,3166.88
2018-07-27T09:20:57.896Z,3088.13
2018-07-27T09:21:57.915Z,3037.50
2018-07-27T09:22:57.934Z,3026.25
2018-07-27T09:23:57.951Z,3155.63
2018-07-27T09:24:58.501Z,2953.13
2018-07-27T09:25:57.989Z,2773.13
2018-07-27T09:26:58.009Z,2610.00
2018-07-27T09:27:58.026Z,2941.88
2018-07-27T09:28:58.044Z,3031.88
2018-07-27T09:29:58.064Z,3076.88
2018-07-27T09:30:58.081Z,3110.63
2018-07-27T09:31:58.100Z,3223.13
2018-07-27T09:32:58.118Z,3346.88
2018-07-27T09:33:58.136Z,3420.00
2018-07-27T09:34:58.155Z,3504.38
2018-07-27T09:35:58.172Z,3504.38
2018-07-27T09:36:58.191Z,3470.63
2018-07-27T09:37:58.210Z,3189.38
2018-07-27T09:38:58.229Z,3200.63
2018-07-27T09:39:58.247Z,3251.25
2018-07-27T09:40:58.266Z,2829.38
2018-07-27T09:41:58.285Z,3256.88
2018-07-27T09:42:58.304Z,3476.25
2018-07-27T09:43:58.323Z,3448.13
2018-07-27T09:44:58.340Z,3341.25
2018-07-27T09:45:58.360Z,3352.50
2018-07-27T09:46:58.378Z,3352.50
2018-07-27T09:47:58.397Z,3155.63
2018-07-27T09:48:58.417Z,3144.38
2018-07-27T09:49:58.436Z,3324.38
2018-07-27T09:50:58.460Z,3352.50
2018-07-27T09:51:58.474Z,3178.13
2018-07-27T09:52:58.494Z,3301.88
2018-07-27T09:53:58.513Z,3436.88
2018-07-27T09:54:58.533Z,3369.38
2018-07-27T09:55:58.551Z,3290.63
2018-07-27T09:56:58.571Z,3240.00
2018-07-27T09:57:58.616Z,3335.63
2018-07-27T09:58:58.611Z,3358.13
2018-07-27T09:59:58.630Z,3408.75
2018-07-27T10:00:58.650Z,3459.38
2018-07-27T10:01:58.675Z,3431.25
2018-07-27T10:02:58.696Z,3363.75
2018-07-27T10:03:58.708Z,3330.00
2018-07-27T10:04:58.728Z,3290.63
2018-07-27T10:05:58.753Z,3358.13
2018-07-27T10:06:58.768Z,3369.38
2018-07-27T10:07:58.787Z,3330.00
2018-07-27T10:08:58.807Z,3313.13
2018-07-27T10:09:58.828Z,3307.50
2018-07-27T10:10:58.848Z,3363.75
2018-07-27T10:11:58.867Z,3234.38
2018-07-27T10:12:58.888Z,3088.13
2018-07-27T10:13:58.908Z,3161.25
2018-07-27T10:14:58.928Z,3105.00
2018-07-27T10:15:58.947Z,3138.75
2018-07-27T10:16:58.968Z,3048.75
2018-07-27T10:17:58.988Z,3133.13
2018-07-27T10:18:59.009Z,3234.38
2018-07-27T10:19:59.028Z,3206.25
2018-07-27T10:20:59.048Z,3262.50
2018-07-27T10:21:59.068Z,3133.13
2018-07-27T10:22:59.088Z,3195.00
2018-07-27T10:23:59.157Z,3071.25
2018-07-27T10:24:59.126Z,2902.50
2018-07-27T10:25:59.146Z,2784.38
2018-07-27T10:26:59.168Z,2666.25
2018-07-27T10:27:59.184Z,2778.75
2018-07-27T10:28:59.203Z,2986.88
2018-07-27T10:29:59.222Z,3060.00
2018-07-27T10:30:59.240Z,3116.25
2018-07-27T10:31:59.258Z,3240.00
2018-07-27T10:32:59.278Z,2773.13
2018-07-27T10:33:59.294Z,2851.88
2018-07-27T10:34:59.313Z,3037.50
2018-07-27T10:35:59.330Z,2795.63
2018-07-27T10:36:59.349Z,2705.63
2018-07-27T10:37:59.367Z,2677.50
2018-07-27T10:38:59.385Z,2604.38
2018-07-27T10:39:59.402Z,2581.88
2018-07-27T10:40:59.420Z,2520.00
2018-07-27T10:41:59.438Z,2756.25
2018-07-27T10:42:59.456Z,2694.38
2018-07-27T10:43:59.473Z,2514.38
2018-07-27T10:44:59.567Z,2424.38
2018-07-27T10:45:59.509Z,2497.50
2018-07-27T10:46:59.527Z,2345.63
2018-07-27T10:47:59.543Z,2323.13
2018-07-27T10:48:59.562Z,2497.50
2018-07-27T10:49:59.580Z,2418.75
2018-07-27T10:50:59.597Z,2373.75
2018-07-27T10:51:59.614Z,2525.63
2018-07-27T10:52:59.632Z,2435.63
2018-07-27T10:53:59.649Z,2379.38
2018-07-27T10:54:59.667Z,2424.38
2018-07-27T10:55:59.683Z,2407.50
2018-07-27T10:56:59.703Z,2503.13
2018-07-27T10:57:59.717Z,2728.13
2018-07-27T10:58:59.738Z,2829.38
2018-07-27T10:59:59.751Z,2958.75
2018-07-27T11:00:59.768Z,2941.88
2018-07-27T11:01:59.785Z,3026.25
2018-07-27T11:02:59.803Z,3065.63
2018-07-27T11:03:59.820Z,2716.88
2018-07-27T11:04:59.838Z,2390.63
2018-07-27T11:05:59.858Z,2475.00
2018-07-27T11:06:59.873Z,2593.13
2018-07-27T11:07:59.890Z,2553.75
2018-07-27T11:08:59.909Z,2621.25
2018-07-27T11:09:59.925Z,2604.38
2018-07-27T11:10:59.943Z,2615.63
2018-07-27T11:11:59.960Z,2677.50
2018-07-27T11:12:59.977Z,2970.00
2018-07-27T11:13:59.998Z,3279.38
2018-07-27T11:15:00.015Z,3380.63
2018-07-27T11:16:00.030Z,3330.00
2018-07-27T11:17:00.048Z,3262.50
2018-07-27T11:18:00.070Z,3285.00
2018-07-27T11:19:00.084Z,3375.00
2018-07-27T11:20:00.101Z,3290.63
2018-07-27T11:21:00.120Z,3358.13
2018-07-27T11:22:00.139Z,3358.13
2018-07-27T11:23:00.158Z,3358.13
2018-07-27T11:24:00.176Z,3313.13
2018-07-27T11:25:00.196Z,3352.50
2018-07-27T11:26:00.218Z,3335.63
2018-07-27T11:27:00.235Z,3262.50
2018-07-27T11:28:00.253Z,3324.38
2018-07-27T11:29:00.273Z,3200.63
2018-07-27T11:30:00.293Z,3431.25
2018-07-27T11:31:00.421Z,3324.38
2018-07-27T11:32:00.331Z,3307.50
2018-07-27T11:33:00.351Z,3285.00
2018-07-27T11:34:00.371Z,3341.25
2018-07-27T11:35:00.390Z,3318.75
2018-07-27T11:36:00.408Z,3200.63
2018-07-27T11:37:00.430Z,3256.88
2018-07-27T11:38:00.446Z,3015.00
2018-07-27T11:39:00.466Z,2930.63
2018-07-27T11:40:00.484Z,3003.75
2018-07-27T11:41:00.504Z,3048.75
2018-07-27T11:42:00.524Z,3088.13
2018-07-27T11:43:00.543Z,3082.50
2018-07-27T11:44:00.561Z,2885.63
2018-07-27T11:45:00.581Z,3121.88
2018-07-27T11:46:00.600Z,3465.00
2018-07-27T11:47:00.619Z,3369.38
2018-07-27T11:48:00.637Z,3313.13
2018-07-27T11:49:00.657Z,3245.63
2018-07-27T11:50:00.678Z,3076.88
2018-07-27T11:51:00.697Z,3065.63
2018-07-27T11:52:00.716Z,3116.25
2018-07-27T11:53:00.736Z,3155.63
2018-07-27T11:54:00.757Z,3200.63
2018-07-27T11:55:00.777Z,3093.75
2018-07-27T11:56:00.796Z,3127.50
2018-07-27T11:57:00.817Z,3223.13
2018-07-27T11:58:00.838Z,3206.25
2018-07-27T11:59:00.859Z,3144.38
2018-07-27T12:00:00.882Z,2975.63
2018-07-27T12:01:00.905Z,2908.13
2018-07-27T12:02:00.922Z,3105.00
2018-07-27T12:03:00.943Z,3200.63
2018-07-27T12:04:00.963Z,3223.13
2018-07-27T12:05:00.986Z,3037.50
2018-07-27T12:06:01.006Z,2885.63
2018-07-27T12:07:01.038Z,2919.38
2018-07-27T12:08:01.049Z,3138.75
2018-07-27T12:09:01.067Z,3082.50
2018-07-27T12:10:01.089Z,3099.38
2018-07-27T12:11:01.110Z,2981.25
2018-07-27T12:12:01.146Z,2733.75
2018-07-27T12:13:01.152Z,2559.38
2018-07-27T12:14:01.291Z,2638.13
2018-07-27T12:15:01.410Z,2745.00
2018-07-27T12:16:01.213Z,2902.50
2018-07-27T12:17:01.236Z,3003.75
2018-07-27T12:18:01.255Z,3065.63
2018-07-27T12:19:01.276Z,3003.75
2018-07-27T12:20:01.296Z,2919.38
2018-07-27T12:21:01.481Z,2891.25
2018-07-27T12:22:01.346Z,2835.00
2018-07-27T12:23:01.357Z,2773.13
2018-07-27T12:24:01.376Z,3048.75
2018-07-27T12:25:01.397Z,3043.13
2018-07-27T12:26:01.416Z,2806.88
2018-07-27T12:27:01.453Z,3071.25
2018-07-27T12:28:01.455Z,2908.13
2018-07-27T12:29:01.474Z,2953.13
2018-07-27T12:30:01.494Z,2891.25
2018-07-27T12:31:01.514Z,2806.88
2018-07-27T12:32:01.534Z,2694.38
2018-07-27T12:33:01.553Z,2908.13
2018-07-27T12:34:01.572Z,2885.63
2018-07-27T12:35:01.592Z,2964.38